Aviation Digital Data Service (ADDS)

Output produced by METARs form (1230 UTC 19 January 2019)
found at http://www.aviationweather.gov/metar/data/
 
Forecast for: VTST (TRANG , TH)
Text: TAF VTST 191100Z 1912/2012 04007KT 8000 FEW020
Forecast period: 1200 UTC 19 January 2019 to 0200 UTC 20 January 2019
Forecast type: FROM: standard forecast or significant change
Winds: from the NE (40 degrees) at 8 MPH (7 knots; 3.6 m/s)
Visibility: 5 miles (8 km)
Ceiling: at least 12,000 feet AGL
Clouds: few clouds at 2000 feet AGL
Weather: no significant weather forecast for this period
Text: BECMG 2002/2004 08013KT 9999
Forecast period: 0200 to 1200 UTC 20 January 2019
Forecast type: BECOMING: Conditions expected to become as follows by 0400 UTC 20 January 2019
Winds: from the E (80 degrees) at 15 MPH (13 knots; 6.7 m/s)
Visibility: 6 or more miles 10+ km)
Ceiling: at least 12,000 feet AGL
Clouds: few clouds at 2000 feet AGL
Weather: no significant weather forecast for this period